Time;durP1;ratioP1;P1;durP2;ratioP2;P2;SDS_P1;SDS_P2;PMS_P1;PMS_P2;Temp;Humidity;BMP_temperature;BMP_pressure;BME280_temperature;BME280_humidity;BME280_pressure;Samples;Min_cycle;Max_cycle;Signal;HPM_P1;HPM_P2
2022/12/12 00:01:22;;;;;;;60.47;10.70;;;;;;;-1.08;100.00;99816.78;5038838;28;20047;-83
2022/12/12 00:03:48;;;;;;;57.67;9.07;;;;;;;-1.17;100.00;99820.72;5039655;28;20043;-83
2022/12/12 00:06:14;;;;;;;36.35;7.20;;;;;;;-1.22;100.00;99817.53;5048186;28;20397;-83
2022/12/12 00:08:40;;;;;;;87.93;7.38;;;;;;;-1.25;100.00;99822.88;5031717;28;20052;-83
2022/12/12 00:11:05;;;;;;;45.10;6.68;;;;;;;-1.27;100.00;99822.13;5044266;28;20048;-83
2022/12/12 00:13:34;;;;;;;61.55;6.70;;;;;;;-1.27;100.00;99833.34;5047151;28;20163;-83
2022/12/12 00:16:01;;;;;;;41.42;7.00;;;;;;;-1.28;100.00;99834.28;5047837;28;20446;-83
2022/12/12 00:18:26;;;;;;;39.28;10.65;;;;;;;-1.30;100.00;99832.66;5027133;28;20052;-83
2022/12/12 00:20:54;;;;;;;58.35;12.40;;;;;;;-1.34;100.00;99826.84;5043263;28;20033;-83
2022/12/12 00:23:20;;;;;;;44.35;10.43;;;;;;;-1.33;100.00;99828.50;5014090;28;20505;-83
2022/12/12 00:26:21;;;;;;;68.13;11.73;;;;;;;-1.30;100.00;99824.88;5017164;28;20037;-83
2022/12/12 00:28:47;;;;;;;69.93;8.38;;;;;;;-1.33;100.00;99817.28;5012954;28;20135;-83
2022/12/12 00:31:14;;;;;;;71.88;7.20;;;;;;;-1.33;100.00;99814.69;5025847;28;20071;-83
2022/12/12 00:33:40;;;;;;;40.15;7.88;;;;;;;-1.33;100.00;99807.75;5023578;28;20041;-83
2022/12/12 00:36:06;;;;;;;41.38;8.45;;;;;;;-1.33;100.00;99809.50;5006082;28;20358;-83
2022/12/12 00:38:32;;;;;;;61.58;6.50;;;;;;;-1.39;100.00;99806.34;5031006;28;20044;-84
2022/12/12 00:41:00;;;;;;;33.17;5.43;;;;;;;-1.43;100.00;99807.41;5041934;28;20065;-83
2022/12/12 00:43:26;;;;;;;81.85;6.28;;;;;;;-1.52;100.00;99797.53;5039994;28;20041;-83
2022/12/12 00:45:53;;;;;;;77.53;10.95;;;;;;;-1.52;100.00;99805.31;5044878;28;20033;-84
2022/12/12 00:48:19;;;;;;;80.50;6.38;;;;;;;-1.54;100.00;99800.22;5032037;28;20430;-83
2022/12/12 00:50:45;;;;;;;48.03;5.95;;;;;;;-1.51;100.00;99799.19;5030072;28;20518;-84
2022/12/12 00:53:12;;;;;;;95.80;7.75;;;;;;;-1.51;100.00;99800.03;5027471;28;20039;-83
2022/12/12 00:55:38;;;;;;;49.63;5.85;;;;;;;-1.50;100.00;99808.66;5046489;28;20055;-83
2022/12/12 00:58:04;;;;;;;51.30;6.93;;;;;;;-1.51;100.00;99801.78;5037968;28;20476;-83
2022/12/12 01:00:32;;;;;;;50.05;6.03;;;;;;;-1.45;100.00;99808.41;5025367;28;20125;-83
2022/12/12 01:02:58;;;;;;;47.10;8.50;;;;;;;-1.43;100.00;99799.63;5038591;28;20025;-83
2022/12/12 01:05:25;;;;;;;86.97;17.13;;;;;;;-1.37;100.00;99804.47;5004817;28;20033;-89
2022/12/12 01:07:51;;;;;;;83.70;18.75;;;;;;;-1.34;100.00;99806.09;5043836;28;20120;-90
2022/12/12 01:10:17;;;;;;;49.10;5.82;;;;;;;-1.41;100.00;99805.56;5046430;28;20493;-83
2022/12/12 01:12:44;;;;;;;42.15;5.82;;;;;;;-1.44;100.00;99812.66;5028146;28;20037;-83
2022/12/12 01:15:10;;;;;;;34.25;6.55;;;;;;;-1.42;100.00;99813.44;5021151;28;20639;-83
2022/12/12 01:17:37;;;;;;;83.10;7.18;;;;;;;-1.43;100.00;99810.00;5025952;28;20627;-83
2022/12/12 01:20:13;;;;;;;52.63;8.30;;;;;;;-1.42;100.00;99808.25;5022631;28;20063;-83
2022/12/12 01:22:39;;;;;;;;;;;;;;;-1.52;100.00;99813.09;5031841;28;20044;-84
2022/12/12 01:25:04;;;;;;;50.43;11.43;;;;;;;-1.53;100.00;99801.06;5049951;28;19916;-83
2022/12/12 01:27:31;;;;;;;69.38;10.35;;;;;;;-1.52;100.00;99806.16;5030162;28;20036;-84
2022/12/12 01:30:00;;;;;;;89.43;14.82;;;;;;;-1.49;100.00;99802.56;5033031;28;20032;-90
2022/12/12 01:32:29;;;;;;;84.70;10.40;;;;;;;-1.48;100.00;99801.63;5033183;28;20083;-90
2022/12/12 01:34:55;;;;;;;94.35;7.05;;;;;;;-1.57;100.00;99790.00;5046308;28;20068;-84
2022/12/12 01:37:21;;;;;;;86.18;13.63;;;;;;;-1.60;100.00;99787.59;5019535;28;20057;-83
2022/12/12 01:39:47;;;;;;;90.82;8.73;;;;;;;-1.59;100.00;99791.84;5039986;28;20041;-83
2022/12/12 01:42:15;;;;;;;101.38;16.42;;;;;;;-1.60;100.00;99789.31;5024767;28;20048;-83
2022/12/12 01:44:47;;;;;;;122.32;14.65;;;;;;;-1.59;100.00;99784.06;5046553;28;20021;-84
2022/12/12 01:47:16;;;;;;;150.43;12.10;;;;;;;-1.59;100.00;99789.25;5027484;28;20032;-84
2022/12/12 01:49:53;;;;;;;84.22;7.72;;;;;;;-1.62;100.00;99790.25;5021470;28;20052;-83
2022/12/12 01:52:29;;;;;;;116.75;8.52;;;;;;;-1.59;100.00;99785.84;5021367;28;20037;-84
2022/12/12 01:54:58;;;;;;;95.35;9.38;;;;;;;-1.56;100.00;99786.50;5043536;28;20541;-84
2022/12/12 01:57:35;;;;;;;108.00;9.80;;;;;;;-1.52;100.00;99787.16;5024687;28;20048;-83
2022/12/12 02:00:06;;;;;;;56.80;10.02;;;;;;;-1.53;100.00;99782.91;5044534;28;20041;-90
2022/12/12 02:02:33;;;;;;;109.43;9.77;;;;;;;-1.52;100.00;99784.56;5032667;28;21364;-90
2022/12/12 02:05:06;;;;;;;49.70;6.75;;;;;;;-1.52;100.00;99788.00;5049699;28;20033;-84
2022/12/12 02:07:32;;;;;;;55.28;7.90;;;;;;;-1.63;100.00;99775.63;5046247;28;20090;-84
2022/12/12 02:09:58;;;;;;;110.07;8.50;;;;;;;-1.67;100.00;99783.66;5048179;28;20037;-84
2022/12/12 02:12:24;;;;;;;99.22;8.32;;;;;;;-1.77;100.00;99780.72;5028260;28;20120;-84
2022/12/12 02:14:52;;;;;;;75.72;8.43;;;;;;;-1.78;100.00;99786.78;5059716;28;20037;-84
2022/12/12 02:17:39;;;;;;;71.35;6.75;;;;;;;-1.79;100.00;99782.53;5066906;28;20029;-83
2022/12/12 02:20:47;;;;;;;110.95;7.85;;;;;;;-1.81;100.00;99774.00;5048604;28;20052;-84
2022/12/12 02:23:41;;;;;;;121.40;6.22;;;;;;;-1.91;100.00;99781.44;5050075;28;20036;-83
2022/12/12 02:26:53;;;;;;;109.82;7.60;;;;;;;-1.97;100.00;99776.56;5026999;28;20047;-84
2022/12/12 02:29:40;;;;;;;147.35;6.72;;;;;;;-1.95;100.00;99777.31;4968982;28;20037;-84
2022/12/12 02:32:17;;;;;;;66.38;4.95;;;;;;;-1.93;100.00;99776.34;5060727;28;20061;-83
2022/12/12 02:35:01;;;;;;;123.53;7.55;;;;;;;-1.96;100.00;99767.88;5049488;28;20033;-83
2022/12/12 02:37:32;;;;;;;173.45;6.25;;;;;;;-2.00;100.00;99770.63;5046705;28;20096;-84
2022/12/12 02:40:19;;;;;;;170.35;6.85;;;;;;;-2.02;100.00;99769.03;5045342;28;20033;-83
2022/12/12 02:43:10;;;;;;;282.98;9.10;;;;;;;-2.06;100.00;99773.56;5049050;28;20048;-83
2022/12/12 02:45:50;;;;;;;163.43;7.07;;;;;;;-2.03;100.00;99769.94;5032122;28;20045;-84
2022/12/12 02:48:56;;;;;;;90.13;7.68;;;;;;;-2.02;100.00;99767.28;5044803;28;20404;-84
2022/12/12 02:51:23;;;;;;;97.13;6.55;;;;;;;-2.03;100.00;99762.19;4993089;28;20409;-84
2022/12/12 02:53:49;;;;;;;203.52;7.55;;;;;;;-1.98;100.00;99760.19;5012316;28;20075;-83
2022/12/12 02:56:44;;;;;;;244.32;8.35;;;;;;;-1.94;100.00;99761.69;5047650;28;20032;-83
2022/12/12 02:59:20;;;;;;;149.50;7.70;;;;;;;-2.02;100.00;99758.66;5029371;28;20045;-83
2022/12/12 03:02:04;;;;;;;150.18;6.72;;;;;;;-2.08;100.00;99752.06;5050527;28;20067;-84
2022/12/12 03:07:46;;;;;;;131.15;7.35;;;;;;;-2.07;100.00;99751.13;5029989;28;20389;-90
2022/12/12 03:10:36;;;;;;;56.65;5.68;;;;;;;-1.99;100.00;99750.75;5033811;28;20055;-84
2022/12/12 03:13:09;;;;;;;165.65;7.00;;;;;;;-1.95;100.00;99751.41;5030254;28;20071;-83
2022/12/12 03:15:51;;;;;;;72.60;5.75;;;;;;;-1.90;100.00;99752.03;5041774;28;20041;-83
2022/12/12 03:18:34;;;;;;;108.20;6.13;;;;;;;-1.89;100.00;99751.94;5031940;28;20060;-84
2022/12/12 03:21:03;;;;;;;55.47;5.35;;;;;;;-1.88;100.00;99742.44;5039886;28;20041;-83
2022/12/12 03:23:38;;;;;;;198.25;7.45;;;;;;;-1.84;100.00;99745.66;5050550;28;20033;-84
2022/12/12 03:26:10;;;;;;;138.13;6.30;;;;;;;-1.88;100.00;99735.47;5049470;28;20086;-83
2022/12/12 03:28:42;;;;;;;61.75;5.70;;;;;;;-1.81;100.00;99737.72;5030719;28;21017;-84
2022/12/12 03:31:10;;;;;;;112.57;6.90;;;;;;;-1.85;100.00;99734.50;5045877;28;20029;-83
2022/12/12 03:33:44;;;;;;;74.47;5.28;;;;;;;-1.90;100.00;99742.50;5050477;28;20029;-84
2022/12/12 03:36:16;;;;;;;167.98;6.95;;;;;;;-2.03;100.00;99731.94;5032212;28;20381;-84
2022/12/12 03:38:55;;;;;;;161.50;6.10;;;;;;;-2.05;100.00;99733.78;5048976;28;20032;-83
2022/12/12 03:41:25;;;;;;;66.80;6.05;;;;;;;-2.03;100.00;99736.28;5046927;28;20045;-84
2022/12/12 03:44:16;;;;;;;184.57;6.82;;;;;;;-1.98;100.00;99742.06;5042785;28;20444;-84
2022/12/12 03:46:53;;;;;;;174.02;6.53;;;;;;;-2.00;100.00;99749.91;5049833;28;20377;-84
2022/12/12 03:49:33;;;;;;;43.97;5.40;;;;;;;-1.94;100.00;99740.97;5049122;28;20043;-83
2022/12/12 03:52:09;;;;;;;136.95;5.75;;;;;;;-1.90;100.00;99742.50;5065468;28;20127;-84
2022/12/12 03:54:47;;;;;;;154.20;5.57;;;;;;;-1.95;100.00;99741.91;5033854;28;20068;-84
2022/12/12 03:57:23;;;;;;;113.75;4.90;;;;;;;-1.99;100.00;99735.19;5040046;28;20106;-84
2022/12/12 04:00:02;;;;;;;194.43;6.68;;;;;;;-1.98;100.00;99742.06;5048602;28;20059;-91
2022/12/12 04:02:53;;;;;;;87.53;5.25;;;;;;;-1.95;100.00;99728.97;5051765;28;20045;-91
2022/12/12 04:05:31;;;;;;;98.05;4.70;;;;;;;-1.99;100.00;99724.84;5041866;28;20030;-84
2022/12/12 04:08:07;;;;;;;97.07;4.50;;;;;;;-1.97;100.00;99716.97;5041914;28;20041;-84
2022/12/12 04:13:51;;;;;;;172.50;5.57;;;;;;;-2.01;100.00;99724.09;5044528;28;20891;-84
2022/12/12 04:16:29;;;;;;;142.48;5.38;;;;;;;-2.03;100.00;99710.38;5050062;28;20037;-84
2022/12/12 04:18:59;;;;;;;88.38;4.75;;;;;;;-2.08;100.00;99708.03;5023006;28;20083;-84
2022/12/12 04:24:47;;;;;;;124.43;5.22;;;;;;;-2.05;100.00;99709.63;5063324;28;20037;-84
2022/12/12 04:27:20;;;;;;;287.48;7.57;;;;;;;-2.04;100.00;99701.78;5045348;28;20040;-84
2022/12/12 04:29:50;;;;;;;59.25;4.43;;;;;;;-1.99;100.00;99698.94;5030225;28;20428;-84
2022/12/12 04:32:20;;;;;;;104.05;4.18;;;;;;;-2.05;100.00;99697.53;5041641;28;20155;-83
2022/12/12 04:34:51;;;;;;;83.95;5.60;;;;;;;-2.03;100.00;99687.94;5031324;28;20041;-83
2022/12/12 04:37:24;;;;;;;57.90;4.60;;;;;;;-1.96;100.00;99688.44;5046426;28;20480;-83
2022/12/12 04:39:56;;;;;;;14.65;3.60;;;;;;;-1.91;100.00;99686.41;5042022;28;20134;-83
2022/12/12 04:42:26;;;;;;;87.88;4.93;;;;;;;-1.88;100.00;99683.66;5063821;28;20044;-83
2022/12/12 04:45:02;;;;;;;168.65;6.22;;;;;;;-1.91;100.00;99683.81;5043594;28;20057;-83
2022/12/12 04:47:39;;;;;;;148.88;6.78;;;;;;;-1.92;100.00;99674.41;5055392;28;20059;-83
2022/12/12 04:50:08;;;;;;;137.90;7.97;;;;;;;-1.92;100.00;99670.97;5037146;28;20041;-83
2022/12/12 04:52:37;;;;;;;117.90;6.35;;;;;;;-1.88;100.00;99672.47;5046653;28;20045;-83
2022/12/12 04:55:12;;;;;;;156.82;5.85;;;;;;;-1.90;100.00;99669.97;5022581;28;20043;-82
2022/12/12 04:57:46;;;;;;;83.82;5.38;;;;;;;-1.92;100.00;99670.97;5020707;28;20029;-83
2022/12/12 05:00:13;;;;;;;88.05;4.78;;;;;;;-1.89;100.00;99670.78;5031370;28;20045;-83
2022/12/12 05:02:38;;;;;;;210.05;6.85;;;;;;;-1.92;100.00;99670.97;5046210;28;20082;-83
2022/12/12 05:05:34;;;;;;;132.90;5.90;;;;;;;-1.89;100.00;99663.88;5044681;28;20061;-83
2022/12/12 05:08:07;;;;;;;76.15;4.68;;;;;;;-1.86;100.00;99668.03;5039853;28;20060;-83
2022/12/12 05:10:40;;;;;;;99.20;5.07;;;;;;;-1.84;100.00;99663.63;5028356;28;20095;-83
2022/12/12 05:13:13;;;;;;;264.88;7.88;;;;;;;-1.89;100.00;99655.25;5028679;28;20037;-83
2022/12/12 05:15:39;;;;;;;148.07;6.10;;;;;;;-1.88;100.00;99657.75;5028036;28;20033;-83
2022/12/12 05:18:07;;;;;;;104.18;5.10;;;;;;;-1.83;100.00;99648.91;5038747;28;20067;-83
2022/12/12 05:20:34;;;;;;;104.35;5.75;;;;;;;-1.81;100.00;99662.59;5050260;28;20540;-90
2022/12/12 05:22:59;;;;;;;125.20;6.70;;;;;;;-1.82;100.00;99661.78;5041014;28;20036;-90
2022/12/12 05:25:26;;;;;;;122.93;5.80;;;;;;;-1.81;100.00;99668.63;5032212;28;20029;-82
2022/12/12 05:27:52;;;;;;;43.05;4.03;;;;;;;-1.77;100.00;99667.53;5048019;28;20045;-82
2022/12/12 05:30:18;;;;;;;122.93;5.10;;;;;;;-1.77;100.00;99669.31;5046365;28;20037;-82
2022/12/12 05:32:44;;;;;;;69.47;4.63;;;;;;;-1.78;100.00;99668.47;5030395;28;20041;-82
2022/12/12 05:35:13;;;;;;;44.30;4.10;;;;;;;-1.74;100.00;99666.53;5021202;28;20072;-89
2022/12/12 05:37:39;;;;;;;132.98;5.45;;;;;;;-1.81;100.00;99652.25;5009757;28;20087;-90
2022/12/12 05:40:07;;;;;;;109.13;5.70;;;;;;;-1.89;100.00;99648.31;5026461;28;20076;-83
2022/12/12 05:42:34;;;;;;;145.07;5.05;;;;;;;-1.88;100.00;99647.41;5031141;28;20049;-83
2022/12/12 05:44:59;;;;;;;86.35;5.38;;;;;;;-1.83;100.00;99649.72;5029930;28;20035;-82
2022/12/12 05:47:26;;;;;;;225.50;7.63;;;;;;;-1.84;100.00;99647.22;5047835;28;20035;-82
2022/12/12 05:49:52;;;;;;;60.90;4.30;;;;;;;-1.84;100.00;99642.88;5026390;28;20037;-83
2022/12/12 05:52:18;;;;;;;47.08;4.40;;;;;;;-1.89;100.00;99644.88;5030182;28;20029;-82
2022/12/12 05:54:45;;;;;;;120.97;4.97;;;;;;;-1.89;100.00;99645.72;5023058;28;20583;-83
2022/12/12 05:57:10;;;;;;;129.65;5.47;;;;;;;-1.82;100.00;99645.41;5034014;28;20493;-82
2022/12/12 05:59:36;;;;;;;73.53;5.05;;;;;;;-1.84;100.00;99639.44;5028601;28;20049;-82
2022/12/12 06:02:02;;;;;;;115.55;4.22;;;;;;;-1.81;100.00;99641.88;5010601;28;20033;-83
2022/12/12 06:04:29;;;;;;;98.18;4.93;;;;;;;-1.89;100.00;99639.72;5045703;28;20082;-82
2022/12/12 06:06:55;;;;;;;121.15;5.03;;;;;;;-1.92;100.00;99638.13;5047631;28;20040;-83
2022/12/12 06:09:21;;;;;;;170.60;5.68;;;;;;;-1.93;100.00;99631.28;5028380;28;20039;-89
2022/12/12 06:11:47;;;;;;;207.80;5.80;;;;;;;-1.95;100.00;99630.53;5034468;28;20045;-90
2022/12/12 06:14:13;;;;;;;151.43;5.95;;;;;;;-1.93;100.00;99625.25;5053466;28;20041;-84
2022/12/12 06:16:40;;;;;;;100.15;4.80;;;;;;;-1.88;100.00;99629.25;5047441;28;20565;-83
2022/12/12 06:19:05;;;;;;;114.55;4.57;;;;;;;-1.89;100.00;99629.34;5045831;28;20147;-83
2022/12/12 06:21:31;;;;;;;117.25;5.35;;;;;;;-1.88;100.00;99620.69;5022116;28;20127;-83
2022/12/12 06:23:57;;;;;;;54.17;4.30;;;;;;;-1.85;100.00;99627.44;5033554;28;20033;-82
2022/12/12 06:26:23;;;;;;;86.65;4.15;;;;;;;-1.95;100.00;99622.75;5009980;28;20443;-82
2022/12/12 06:28:49;;;;;;;38.70;4.00;;;;;;;-1.95;100.00;99620.16;5021738;28;20037;-81
2022/12/12 06:31:15;;;;;;;72.10;4.78;;;;;;;-1.97;100.00;99627.19;5017322;28;20389;-82
2022/12/12 06:33:45;;;;;;;56.05;4.13;;;;;;;-2.05;100.00;99626.75;5038445;28;20095;-82
2022/12/12 06:36:15;;;;;;;63.17;3.58;;;;;;;-2.02;100.00;99635.19;5063621;28;20063;-82
2022/12/12 06:38:41;;;;;;;114.50;4.97;;;;;;;-2.05;100.00;99629.34;5027994;28;20067;-82
2022/12/12 06:41:09;;;;;;;61.03;3.88;;;;;;;-2.08;100.00;99627.78;5047625;28;20090;-82
2022/12/12 06:43:35;;;;;;;102.45;3.83;;;;;;;-2.20;100.00;99621.50;5043524;28;20041;-83
2022/12/12 06:46:06;;;;;;;69.97;4.03;;;;;;;-2.17;100.00;99621.34;5041247;28;20397;-82
2022/12/12 06:48:34;;;;;;;140.00;5.00;;;;;;;-2.15;100.00;99614.31;5013232;28;20037;-82
2022/12/12 06:51:06;;;;;;;180.30;4.90;;;;;;;-2.09;100.00;99617.50;5044148;28;20028;-82
2022/12/12 06:53:32;;;;;;;121.18;4.60;;;;;;;-2.10;100.00;99615.84;5060154;28;21338;-83
2022/12/12 06:55:57;;;;;;;126.43;5.07;;;;;;;-2.10;100.00;99611.47;5040751;28;20120;-89
2022/12/12 06:58:23;;;;;;;126.00;5.03;;;;;;;-2.09;100.00;99614.91;5035006;28;20053;-89
2022/12/12 07:00:51;;;;;;;109.95;4.93;;;;;;;-2.08;100.00;99604.47;5049873;28;20123;-83
2022/12/12 07:03:18;;;;;;;96.55;4.63;;;;;;;-2.08;100.00;99595.84;5030230;28;20061;-83
2022/12/12 07:05:46;;;;;;;106.68;4.95;;;;;;;-2.05;100.00;99603.44;5034056;28;20041;-89
2022/12/12 07:08:15;;;;;;;173.80;5.60;;;;;;;-2.04;100.00;99599.97;5026263;28;20029;-89
2022/12/12 07:10:44;;;;;;;47.10;3.38;;;;;;;-2.10;100.00;99601.13;5047926;28;20072;-82
2022/12/12 07:13:10;;;;;;;98.40;6.07;;;;;;;-2.09;100.00;99604.53;5034584;28;20082;-83
2022/12/12 07:15:50;;;;;;;78.20;3.95;;;;;;;-2.07;100.00;99607.91;5046052;28;20025;-82
2022/12/12 07:18:25;;;;;;;244.70;7.20;;;;;;;-2.08;100.00;99616.56;5032403;28;20032;-82
2022/12/12 07:20:52;;;;;;;97.70;4.23;;;;;;;-2.14;100.00;99612.56;5050544;28;20049;-83
2022/12/12 07:23:18;;;;;;;91.50;5.07;;;;;;;-2.15;100.00;99600.56;5027686;28;20477;-82
2022/12/12 07:25:46;;;;;;;72.13;4.20;;;;;;;-2.16;100.00;99609.22;5029769;28;20122;-82
2022/12/12 07:28:13;;;;;;;139.80;5.03;;;;;;;-2.14;100.00;99610.81;5058563;28;20115;-82
2022/12/12 07:30:41;;;;;;;113.55;4.30;;;;;;;-2.21;100.00;99614.66;5043250;28;20109;-82
2022/12/12 07:33:08;;;;;;;155.65;6.00;;;;;;;-2.25;100.00;99619.19;5047104;28;20036;-82
2022/12/12 07:35:34;;;;;;;101.32;5.00;;;;;;;-2.21;100.00;99622.41;5023719;28;20044;-82
2022/12/12 07:38:02;;;;;;;94.95;28.25;;;;;;;-2.15;100.00;99616.09;5042995;28;20041;-82
2022/12/12 07:40:32;;;;;;;96.30;6.68;;;;;;;-2.17;100.00;99610.16;5025820;28;20041;-81
2022/12/12 07:42:59;;;;;;;151.80;5.68;;;;;;;-2.21;100.00;99614.66;5045194;28;20052;-81
2022/12/12 07:45:26;;;;;;;65.60;6.53;;;;;;;-2.26;100.00;99614.91;5025866;28;20044;-81
2022/12/12 07:47:52;;;;;;;187.88;6.55;;;;;;;-2.29;100.00;99620.25;5046957;28;20040;-82
2022/12/12 07:50:19;;;;;;;51.38;7.40;;;;;;;-2.25;100.00;99616.59;5011918;28;20738;-81
2022/12/12 07:52:45;;;;;;;154.70;5.82;;;;;;;-2.22;100.00;99618.16;5027643;28;20098;-81
2022/12/12 07:55:12;;;;;;;63.83;4.05;;;;;;;-2.25;100.00;99611.41;5045765;28;20067;-82
2022/12/12 07:57:40;;;;;;;72.32;5.00;;;;;;;-2.26;100.00;99607.13;5048791;28;20409;-82
2022/12/12 08:00:12;;;;;;;26.10;4.72;;;;;;;-2.20;100.00;99605.13;5011066;28;20059;-82
2022/12/12 08:02:38;;;;;;;44.97;4.40;;;;;;;-2.19;100.00;99597.28;5046838;28;20174;-82
2022/12/12 08:05:05;;;;;;;99.20;23.13;;;;;;;-2.16;100.00;99591.94;5049856;28;20167;-81
2022/12/12 08:07:32;;;;;;;113.60;14.77;;;;;;;-2.19;100.00;99592.09;5032698;28;20031;-82
2022/12/12 08:09:58;;;;;;;227.32;8.20;;;;;;;-2.21;100.00;99590.53;5049945;28;20037;-81
2022/12/12 08:12:27;;;;;;;64.45;3.47;;;;;;;-2.39;100.00;99588.00;5033411;28;20079;-82
2022/12/12 08:14:53;;;;;;;316.52;8.70;;;;;;;-2.46;100.00;99600.44;5032820;28;20579;-82
2022/12/12 08:17:18;;;;;;;74.82;5.05;;;;;;;-2.48;100.00;99606.63;5026230;28;20111;-82
2022/12/12 08:19:44;;;;;;;17.55;3.45;;;;;;;-2.45;100.00;99615.03;5028944;28;20473;-82
2022/12/12 08:22:10;;;;;;;100.53;5.13;;;;;;;-2.41;100.00;99611.38;5031699;28;20040;-82
2022/12/12 08:24:36;;;;;;;146.68;6.00;;;;;;;-2.34;100.00;99603.28;5031352;28;20041;-82
2022/12/12 08:27:02;;;;;;;88.93;5.13;;;;;;;-2.28;100.00;99601.19;5047048;28;20390;-82
2022/12/12 08:29:28;;;;;;;88.15;4.65;;;;;;;-2.26;100.00;99595.94;5046777;28;20047;-82
2022/12/12 08:31:54;;;;;;;121.20;4.85;;;;;;;-2.24;100.00;99596.69;5028315;28;20048;-81
2022/12/12 08:34:20;;;;;;;32.90;4.35;;;;;;;-2.30;100.00;99604.78;5062652;28;20044;-82
2022/12/12 08:36:46;;;;;;;59.00;4.03;;;;;;;-2.32;100.00;99611.78;5049182;28;20044;-82
2022/12/12 08:39:15;;;;;;;53.28;4.25;;;;;;;-2.39;100.00;99611.31;5047058;28;20033;-82
2022/12/12 08:41:46;;;;;;;99.20;15.75;;;;;;;-2.38;100.00;99613.81;5033732;28;20400;-81
2022/12/12 08:44:13;;;;;;;84.97;10.85;;;;;;;-2.37;100.00;99612.88;5010006;28;20485;-82
2022/12/12 08:46:40;;;;;;;75.18;4.57;;;;;;;-2.34;100.00;99616.22;5049422;28;20405;-82
2022/12/12 08:49:07;;;;;;;107.57;4.65;;;;;;;-2.41;100.00;99619.16;5031440;28;20052;-82
2022/12/12 08:51:36;;;;;;;40.30;3.95;;;;;;;-2.40;100.00;99617.38;5016955;28;20594;-82
2022/12/12 08:54:02;;;;;;;109.90;7.05;;;;;;;-2.40;100.00;99610.47;5054907;28;20040;-82
2022/12/12 08:56:28;;;;;;;140.90;6.25;;;;;;;-2.41;100.00;99611.38;5046232;28;20124;-89
2022/12/12 08:58:54;;;;;;;105.47;4.68;;;;;;;-2.43;100.00;99597.69;5028491;28;20136;-89
2022/12/12 09:01:25;;;;;;;101.22;5.22;;;;;;;-2.47;100.00;99596.19;5025975;28;20091;-82
2022/12/12 09:03:53;;;;;;;181.27;5.82;;;;;;;-2.49;100.00;99600.59;5063109;28;20041;-82
2022/12/12 09:06:19;;;;;;;247.50;7.05;;;;;;;-2.48;100.00;99607.44;5024630;28;20025;-82
2022/12/12 09:08:46;;;;;;;87.70;5.22;;;;;;;-2.51;100.00;99600.69;5045634;28;20032;-82
2022/12/12 09:11:12;;;;;;;151.70;5.88;;;;;;;-2.51;100.00;99607.59;5033388;28;20037;-82
2022/12/12 09:13:39;;;;;;;56.50;4.70;;;;;;;-2.51;100.00;99600.69;5029755;28;20041;-82
2022/12/12 09:16:09;;;;;;;87.72;5.03;;;;;;;-2.50;100.00;99598.94;5044725;28;20068;-82
2022/12/12 09:18:53;;;;;;;50.50;4.68;;;;;;;-2.48;100.00;99609.22;5047920;28;20035;-82
2022/12/12 09:21:23;;;;;;;93.90;5.03;;;;;;;-2.43;100.00;99607.19;5048233;28;20103;-82
2022/12/12 09:23:52;;;;;;;55.63;4.35;;;;;;;-2.48;100.00;99612.59;5028097;28;20131;-83
2022/12/12 09:26:26;;;;;;;74.10;5.03;;;;;;;-2.45;100.00;99611.63;5024018;28;20036;-82
2022/12/12 09:28:52;;;;;;;144.15;5.78;;;;;;;-2.46;100.00;99609.94;5044820;28;20026;-82
2022/12/12 09:31:18;;;;;;;140.38;5.93;;;;;;;-2.55;100.00;99608.69;5047330;28;20040;-82
2022/12/12 09:33:44;;;;;;;176.50;6.07;;;;;;;-2.55;100.00;99600.94;5032156;28;20056;-82
2022/12/12 09:36:12;;;;;;;171.63;6.22;;;;;;;-2.52;100.00;99606.78;5029195;28;20044;-81
2022/12/12 09:38:38;;;;;;;88.38;5.00;;;;;;;-2.49;100.00;99605.78;5046266;28;20029;-82
2022/12/12 09:41:19;;;;;;;221.65;7.68;;;;;;;-2.41;100.00;99598.44;5026741;28;20041;-82
2022/12/12 09:44:24;;;;;;;101.05;6.13;;;;;;;-2.38;100.00;99607.78;4979278;28;20041;-82
2022/12/12 09:46:59;;;;;;;130.93;5.55;;;;;;;-2.42;100.00;99604.53;5044003;28;20033;-83
2022/12/12 09:49:25;;;;;;;193.00;6.60;;;;;;;-2.44;100.00;99598.59;5016956;28;20037;-83
2022/12/12 09:51:52;;;;;;;133.00;5.07;;;;;;;-2.43;100.00;99594.25;5044700;28;20129;-83
2022/12/12 09:54:21;;;;;;;191.77;9.32;;;;;;;-2.40;100.00;99592.34;5009561;28;20507;-83
2022/12/12 09:56:56;;;;;;;117.55;5.57;;;;;;;-2.52;100.00;99593.00;5044341;28;20032;-83
2022/12/12 09:59:37;;;;;;;104.35;4.60;;;;;;;-2.57;100.00;99600.16;5028056;28;20444;-83
2022/12/12 10:02:22;;;;;;;62.03;4.60;;;;;;;-2.56;100.00;99601.81;5019108;28;20602;-83
2022/12/12 10:05:20;;;;;;;185.45;9.77;;;;;;;-2.48;100.00;99584.16;5043471;28;20037;-82
2022/12/12 10:08:26;;;;;;;221.07;6.85;;;;;;;-2.57;100.00;99589.81;5014074;28;20053;-82
2022/12/12 10:10:57;;;;;;;241.77;7.13;;;;;;;-2.60;100.00;99585.66;5038269;28;20655;-82
2022/12/12 10:13:28;;;;;;;167.70;7.15;;;;;;;-2.56;100.00;99589.72;5049043;28;20052;-82
2022/12/12 10:16:15;;;;;;;208.20;7.70;;;;;;;-2.54;100.00;99580.16;5046252;28;20400;-82
2022/12/12 10:18:52;;;;;;;222.55;7.10;;;;;;;-2.48;100.00;99578.97;5053135;28;20513;-82
2022/12/12 10:21:25;;;;;;;140.70;5.88;;;;;;;-2.46;100.00;99584.91;5028299;28;20578;-82
2022/12/12 10:24:09;;;;;;;149.18;5.55;;;;;;;-2.42;100.00;99586.41;5048009;28;20040;-82
2022/12/12 10:26:46;;;;;;;131.43;5.97;;;;;;;-2.44;100.00;99592.59;5018857;28;20136;-89
2022/12/12 10:29:17;;;;;;;137.82;5.07;;;;;;;-2.53;100.00;99593.91;5027269;28;20078;-84
2022/12/12 10:31:56;;;;;;;115.97;4.43;;;;;;;-2.64;100.00;99591.88;5024098;28;20504;-81
2022/12/12 10:34:25;;;;;;;198.63;6.22;;;;;;;-2.75;100.00;99595.03;5034701;28;20055;-89
2022/12/12 10:37:20;;;;;;;84.22;4.03;;;;;;;-2.84;100.00;99588.59;5036544;28;20040;-89
2022/12/12 10:40:01;;;;;;;182.70;6.63;;;;;;;-2.79;100.00;99591.78;5017348;28;20038;-82
2022/12/12 10:42:27;;;;;;;135.55;5.07;;;;;;;-2.76;100.00;99595.97;5048051;28;20033;-82
2022/12/12 10:45:12;;;;;;;180.27;6.40;;;;;;;-2.88;100.00;99592.22;5021596;28;20029;-90
2022/12/12 10:47:44;;;;;;;108.00;4.32;;;;;;;-2.90;100.00;99594.09;5028302;28;20061;-90
2022/12/12 10:50:09;;;;;;;38.47;3.47;;;;;;;-2.81;100.00;99587.59;5051685;28;20068;-82
2022/12/12 10:52:36;;;;;;;80.05;4.25;;;;;;;-2.75;100.00;99593.28;5033677;28;20562;-82
2022/12/12 10:55:16;;;;;;;126.05;4.57;;;;;;;-2.71;100.00;99599.16;5044975;28;20037;-82
2022/12/12 10:57:43;;;;;;;156.30;5.28;;;;;;;-2.68;100.00;99592.97;5034448;28;20520;-82
2022/12/12 11:00:25;;;;;;;113.93;4.63;;;;;;;-2.65;100.00;99596.25;5032643;28;20056;-82
2022/12/12 11:02:55;;;;;;;81.63;4.15;;;;;;;-2.62;100.00;99588.31;5045240;28;20135;-82
2022/12/12 11:05:28;;;;;;;174.23;6.32;;;;;;;-2.53;100.00;99580.97;5045873;28;20108;-81
2022/12/12 11:08:20;;;;;;;81.78;4.65;;;;;;;-2.54;100.00;99568.94;5057711;28;20044;-82
2022/12/12 11:11:07;;;;;;;156.13;5.78;;;;;;;-2.48;100.00;99580.75;5033467;28;20041;-82
2022/12/12 11:14:00;;;;;;;142.48;7.65;;;;;;;-2.44;100.00;99566.72;5049595;28;20049;-82
2022/12/12 11:16:55;;;;;;;111.20;8.65;;;;;;;-2.38;100.00;99569.81;5050827;28;20053;-82
2022/12/12 11:19:23;;;;;;;107.47;40.80;;;;;;;-2.35;100.00;99571.38;5062669;28;20374;-82
2022/12/12 11:21:50;;;;;;;89.75;23.80;;;;;;;-2.29;100.00;99573.63;5018891;28;20025;-81
2022/12/12 11:24:38;;;;;;;141.07;5.85;;;;;;;-2.30;100.00;99571.97;5021793;28;20033;-82
2022/12/12 11:27:09;;;;;;;184.52;6.55;;;;;;;-2.23;100.00;99567.31;5033892;28;20037;-82
2022/12/12 11:29:45;;;;;;;142.43;5.95;;;;;;;-2.22;100.00;99570.72;5030623;28;20037;-89
2022/12/12 11:32:25;;;;;;;;;;;;;;;-2.28;100.00;99569.31;5031052;28;20037;-89
2022/12/12 11:34:59;;;;;;;79.60;3.58;;;;;;;-2.23;100.00;99558.69;5040059;28;19920;-82
2022/12/12 11:37:44;;;;;;;106.22;5.20;;;;;;;-2.20;100.00;99563.72;5033593;28;20819;-82
2022/12/12 11:40:30;;;;;;;117.30;5.45;;;;;;;-2.16;100.00;99566.03;5028887;28;20094;-81
2022/12/12 11:43:27;;;;;;;51.80;3.67;;;;;;;-2.14;100.00;99553.84;5044222;28;20439;-82